Time;durP1;ratioP1;P1;durP2;ratioP2;P2;SDS_P1;SDS_P2;PMS_P1;PMS_P2;Temp;Humidity;BMP_temperature;BMP_pressure;BME280_temperature;BME280_humidity;BME280_pressure;Samples;Min_cycle;Max_cycle;Signal;HPM_P1;HPM_P2
2022/11/29 00:01:16;;;;;;;;;11.50;5.50;;;;;;;;5125450;27;62454;-79
2022/11/29 00:03:41;;;;;;;;;8.25;3.75;;;;;;;;5103974;27;61764;-79
2022/11/29 00:06:08;;;;;;;;;8.00;3.50;;;;;;;;5103560;27;62256;-79
2022/11/29 00:08:33;;;;;;;;;6.25;4.25;;;;;;;;5103624;27;61924;-79
2022/11/29 00:11:06;;;;;;;;;6.00;3.50;;;;;;;;5102375;27;64390;-79
2022/11/29 00:13:31;;;;;;;;;3.25;3.25;;;;;;;;5104925;27;61794;-79
2022/11/29 00:16:00;;;;;;;;;6.00;3.75;;;;;;;;5104236;27;61937;-79
2022/11/29 00:18:25;;;;;;;;;4.00;3.00;;;;;;;;5104356;27;61742;-79
2022/11/29 00:20:50;;;;;;;;;8.25;6.00;;;;;;;;5102720;27;63634;-79
2022/11/29 00:23:16;;;;;;;;;4.25;3.00;;;;;;;;5104504;27;61880;-79
2022/11/29 00:25:41;;;;;;;;;5.50;5.50;;;;;;;;5104290;27;61917;-79
2022/11/29 00:28:06;;;;;;;;;5.50;4.25;;;;;;;;5104516;27;61734;-80
2022/11/29 00:30:31;;;;;;;;;7.50;4.00;;;;;;;;5103438;27;62664;-79
2022/11/29 00:32:57;;;;;;;;;3.00;3.00;;;;;;;;5104302;27;61946;-79
2022/11/29 00:35:22;;;;;;;;;6.00;4.00;;;;;;;;5104456;27;61956;-79
2022/11/29 00:37:47;;;;;;;;;9.25;7.00;;;;;;;;5104523;27;62118;-79
2022/11/29 00:40:13;;;;;;;;;3.00;3.00;;;;;;;;5101723;27;61960;-79
2022/11/29 00:42:38;;;;;;;;;6.50;3.50;;;;;;;;5101939;27;61951;-79
2022/11/29 00:45:03;;;;;;;;;3.50;3.50;;;;;;;;5102099;27;61926;-79
2022/11/29 00:47:29;;;;;;;;;4.00;4.00;;;;;;;;5102803;27;61681;-79
2022/11/29 00:49:54;;;;;;;;;5.75;5.75;;;;;;;;5101657;27;63974;-79
2022/11/29 00:52:19;;;;;;;;;8.50;4.75;;;;;;;;5102602;27;61915;-79
2022/11/29 00:54:44;;;;;;;;;9.75;5.50;;;;;;;;5104036;27;61773;-79
2022/11/29 00:57:10;;;;;;;;;7.00;4.00;;;;;;;;5103546;27;61807;-79
2022/11/29 00:59:35;;;;;;;;;7.00;5.25;;;;;;;;5101303;27;63671;-78
2022/11/29 01:02:00;;;;;;;;;7.00;4.50;;;;;;;;5103629;27;61992;-79
2022/11/29 01:04:25;;;;;;;;;11.25;5.00;;;;;;;;5102147;27;61829;-79
2022/11/29 01:06:51;;;;;;;;;5.75;4.00;;;;;;;;5104118;27;61754;-79
2022/11/29 01:09:17;;;;;;;;;6.00;4.00;;;;;;;;5101493;27;63469;-79
2022/11/29 01:11:42;;;;;;;;;4.25;3.75;;;;;;;;5102067;27;61897;-79
2022/11/29 01:14:07;;;;;;;;;4.25;3.00;;;;;;;;5101555;27;62042;-78
2022/11/29 01:16:33;;;;;;;;;4.50;4.50;;;;;;;;5104088;27;61695;-79
2022/11/29 01:18:59;;;;;;;;;3.00;3.00;;;;;;;;5102704;27;62175;-79
2022/11/29 01:21:24;;;;;;;;;7.25;3.50;;;;;;;;5101805;27;61773;-79
2022/11/29 01:23:50;;;;;;;;;5.50;4.25;;;;;;;;5102987;27;62006;-78
2022/11/29 01:26:20;;;;;;;;;7.75;5.50;;;;;;;;5103131;27;61684;-78
2022/11/29 01:28:46;;;;;;;;;8.00;7.00;;;;;;;;5101471;27;62134;-79
2022/11/29 01:31:13;;;;;;;;;10.00;7.00;;;;;;;;5103407;27;61886;-78
2022/11/29 01:33:39;;;;;;;;;10.00;6.00;;;;;;;;5103514;27;62136;-78
2022/11/29 01:36:05;;;;;;;;;9.50;8.50;;;;;;;;5103756;27;61793;-78
2022/11/29 01:38:30;;;;;;;;;8.50;7.75;;;;;;;;5102822;27;62655;-78
2022/11/29 01:41:00;;;;;;;;;8.25;7.25;;;;;;;;5101723;27;62045;-78
2022/11/29 01:43:26;;;;;;;;;7.25;6.25;;;;;;;;5101101;27;61682;-79
2022/11/29 01:45:51;;;;;;;;;6.00;6.00;;;;;;;;5102256;27;62175;-78
2022/11/29 01:48:17;;;;;;;;;11.50;6.00;;;;;;;;5102724;27;62730;-79
2022/11/29 01:50:42;;;;;;;;;7.75;6.50;;;;;;;;5101525;27;61683;-79
2022/11/29 01:53:11;;;;;;;;;12.00;5.00;;;;;;;;5101864;27;62379;-78
2022/11/29 01:55:38;;;;;;;;;6.50;5.25;;;;;;;;5102370;27;61919;-78
2022/11/29 01:58:05;;;;;;;;;7.00;5.75;;;;;;;;5100696;27;64216;-78
2022/11/29 02:00:31;;;;;;;;;9.00;6.25;;;;;;;;5098599;27;61691;-78
2022/11/29 02:03:00;;;;;;;;;8.00;7.25;;;;;;;;5101586;27;61970;-78
2022/11/29 02:05:27;;;;;;;;;8.50;6.50;;;;;;;;5102980;27;62122;-78
2022/11/29 02:07:54;;;;;;;;;9.25;6.00;;;;;;;;5102276;27;63398;-78
2022/11/29 02:10:24;;;;;;;;;7.75;6.75;;;;;;;;5102849;27;62000;-78
2022/11/29 02:12:56;;;;;;;;;7.00;7.00;;;;;;;;5102660;27;61797;-79
2022/11/29 02:15:33;;;;;;;;;6.25;5.25;;;;;;;;5102896;27;62082;-79
2022/11/29 02:18:03;;;;;;;;;7.00;7.00;;;;;;;;5102452;27;61740;-79
2022/11/29 02:20:28;;;;;;;;;8.00;6.50;;;;;;;;5100576;27;61768;-79
2022/11/29 02:23:16;;;;;;;;;8.00;7.00;;;;;;;;5103132;27;61707;-78
2022/11/29 02:25:41;;;;;;;;;8.00;6.25;;;;;;;;5099894;27;62280;-78
2022/11/29 02:28:13;;;;;;;;;10.00;7.00;;;;;;;;5100477;27;62918;-79
2022/11/29 02:30:57;;;;;;;;;7.75;7.50;;;;;;;;5101043;27;62120;-78
2022/11/29 02:33:39;;;;;;;;;10.00;7.75;;;;;;;;5102927;27;61901;-78
2022/11/29 02:36:05;;;;;;;;;9.25;9.25;;;;;;;;5101501;27;62165;-78
2022/11/29 02:38:36;;;;;;;;;15.25;12.50;;;;;;;;5101546;27;61730;-79
2022/11/29 02:41:20;;;;;;;;;9.00;9.00;;;;;;;;5100489;27;61909;-79
2022/11/29 02:44:01;;;;;;;;;11.25;10.00;;;;;;;;5102284;27;61718;-78
2022/11/29 02:46:26;;;;;;;;;9.25;9.25;;;;;;;;5102826;27;61852;-78
2022/11/29 02:48:56;;;;;;;;;15.50;11.25;;;;;;;;5099872;27;61825;-79
2022/11/29 02:51:25;;;;;;;;;10.25;9.25;;;;;;;;5101071;27;61640;-79
2022/11/29 02:53:56;;;;;;;;;12.75;9.75;;;;;;;;5101095;27;61779;-78
2022/11/29 02:56:30;;;;;;;;;12.75;12.75;;;;;;;;5100878;27;61865;-78
2022/11/29 02:59:11;;;;;;;;;12.75;9.00;;;;;;;;5098543;27;62150;-79
2022/11/29 03:01:56;;;;;;;;;9.00;7.50;;;;;;;;5101017;27;61992;-79
2022/11/29 03:04:31;;;;;;;;;11.00;8.25;;;;;;;;5100609;27;61796;-79
2022/11/29 03:07:13;;;;;;;;;13.25;9.25;;;;;;;;5104261;27;61789;-78
2022/11/29 03:09:54;;;;;;;;;16.00;11.50;;;;;;;;5103882;27;63715;-79
2022/11/29 03:12:32;;;;;;;;;7.00;7.00;;;;;;;;5105485;27;61762;-79
2022/11/29 03:15:12;;;;;;;;;9.75;7.50;;;;;;;;5105685;27;61721;-79
2022/11/29 03:17:56;;;;;;;;;10.50;7.50;;;;;;;;5106057;27;61774;-79
2022/11/29 03:20:34;;;;;;;;;11.50;6.25;;;;;;;;5104774;27;61932;-79
2022/11/29 03:23:13;;;;;;;;;6.75;6.75;;;;;;;;5104139;27;61959;-79
2022/11/29 03:25:42;;;;;;;;;6.75;6.75;;;;;;;;5103346;27;62144;-78
2022/11/29 03:28:10;;;;;;;;;13.50;8.00;;;;;;;;5105877;27;61794;-79
2022/11/29 03:30:37;;;;;;;;;7.25;5.25;;;;;;;;5104921;27;63241;-79
2022/11/29 03:33:12;;;;;;;;;7.50;6.75;;;;;;;;5105229;27;61993;-78
2022/11/29 03:35:58;;;;;;;;;5.50;5.50;;;;;;;;5105634;27;62110;-79
2022/11/29 03:38:40;;;;;;;;;17.50;14.00;;;;;;;;5105728;27;61861;-79
2022/11/29 03:41:18;;;;;;;;;17.50;11.75;;;;;;;;5103866;27;61734;-79
2022/11/29 03:43:50;;;;;;;;;15.25;9.50;;;;;;;;5105225;27;61809;-79
2022/11/29 03:46:21;;;;;;;;;13.00;9.50;;;;;;;;5103900;27;61777;-79
2022/11/29 03:49:00;;;;;;;;;9.00;6.00;;;;;;;;5103590;27;61809;-79
2022/11/29 03:51:34;;;;;;;;;9.25;9.00;;;;;;;;5104504;27;62183;-79
2022/11/29 03:54:08;;;;;;;;;7.50;7.25;;;;;;;;5104474;27;61715;-79
2022/11/29 03:56:34;;;;;;;;;6.00;6.00;;;;;;;;5104844;27;61755;-78
2022/11/29 03:59:00;;;;;;;;;4.75;4.75;;;;;;;;5099347;27;61740;-79
2022/11/29 04:01:34;;;;;;;;;8.75;7.50;;;;;;;;5104609;27;61865;-79
2022/11/29 04:04:08;;;;;;;;;10.75;7.75;;;;;;;;5102746;27;62298;-79
2022/11/29 04:06:39;;;;;;;;;9.00;7.25;;;;;;;;5105090;27;61819;-78
2022/11/29 04:09:17;;;;;;;;;7.25;6.25;;;;;;;;5104649;27;62165;-79
2022/11/29 04:11:54;;;;;;;;;8.25;7.00;;;;;;;;5103822;27;62075;-78
2022/11/29 04:14:38;;;;;;;;;6.50;5.50;;;;;;;;5103523;27;62088;-79
2022/11/29 04:17:18;;;;;;;;;7.75;6.00;;;;;;;;5102885;27;61952;-78
2022/11/29 04:19:43;;;;;;;;;6.00;6.00;;;;;;;;5103256;27;61837;-79
2022/11/29 04:22:23;;;;;;;;;9.25;8.25;;;;;;;;5102540;27;63643;-79
2022/11/29 04:25:07;;;;;;;;;7.75;7.75;;;;;;;;5104557;27;61894;-79
2022/11/29 04:27:33;;;;;;;;;8.25;7.00;;;;;;;;5102763;27;61830;-79
2022/11/29 04:30:21;;;;;;;;;6.50;6.00;;;;;;;;5104560;27;61831;-79
2022/11/29 04:32:49;;;;;;;;;10.50;8.00;;;;;;;;5104164;27;62605;-79
2022/11/29 04:35:17;;;;;;;;;7.75;5.00;;;;;;;;5102607;27;61789;-78
2022/11/29 04:38:02;;;;;;;;;7.25;7.25;;;;;;;;5102478;27;61938;-78
2022/11/29 04:40:27;;;;;;;;;10.25;7.50;;;;;;;;5104161;27;61784;-78
2022/11/29 04:43:07;;;;;;;;;7.50;6.75;;;;;;;;5102237;27;63578;-79
2022/11/29 04:45:47;;;;;;;;;13.75;7.00;;;;;;;;5104072;27;61926;-79
2022/11/29 04:48:38;;;;;;;;;12.00;7.00;;;;;;;;5102493;27;61845;-79
2022/11/29 04:51:22;;;;;;;;;12.00;7.00;;;;;;;;5104335;27;62065;-79
2022/11/29 04:53:59;;;;;;;;;13.50;9.00;;;;;;;;5102132;27;64450;-78
2022/11/29 04:56:41;;;;;;;;;8.50;8.50;;;;;;;;5103332;27;62041;-78
2022/11/29 04:59:09;;;;;;;;;11.00;8.25;;;;;;;;5102595;27;61997;-78
2022/11/29 05:01:41;;;;;;;;;7.75;6.00;;;;;;;;5102565;27;61758;-78
2022/11/29 05:04:16;;;;;;;;;15.00;8.00;;;;;;;;5102918;27;61928;-79
2022/11/29 05:06:41;;;;;;;;;10.75;8.75;;;;;;;;5103489;27;61703;-79
2022/11/29 05:09:06;;;;;;;;;10.50;9.25;;;;;;;;5102870;27;61813;-78
2022/11/29 05:11:40;;;;;;;;;13.00;8.75;;;;;;;;5101977;27;61912;-79
2022/11/29 05:14:15;;;;;;;;;13.50;8.25;;;;;;;;5103337;27;61964;-79
2022/11/29 05:16:43;;;;;;;;;12.75;9.00;;;;;;;;5103608;27;61698;-78
2022/11/29 05:19:27;;;;;;;;;10.00;10.00;;;;;;;;5102092;27;61864;-79
2022/11/29 05:22:01;;;;;;;;;9.75;9.00;;;;;;;;5103578;27;61702;-79
2022/11/29 05:24:41;;;;;;;;;11.75;10.50;;;;;;;;5102892;27;62606;-78
2022/11/29 05:27:06;;;;;;;;;13.50;9.50;;;;;;;;5103200;27;61761;-79
2022/11/29 05:29:50;;;;;;;;;10.00;10.00;;;;;;;;5102760;27;61954;-78
2022/11/29 05:32:29;;;;;;;;;12.00;9.25;;;;;;;;5102493;27;61880;-79
2022/11/29 05:35:07;;;;;;;;;12.75;11.25;;;;;;;;5101161;27;63684;-79
2022/11/29 05:37:32;;;;;;;;;6.75;6.75;;;;;;;;5101729;27;61757;-78
2022/11/29 05:40:16;;;;;;;;;15.75;9.00;;;;;;;;5102061;27;62047;-79
2022/11/29 05:42:53;;;;;;;;;9.25;9.25;;;;;;;;5102934;27;61782;-79
2022/11/29 05:45:32;;;;;;;;;15.50;9.50;;;;;;;;5101164;27;64518;-78
2022/11/29 05:48:07;;;;;;;;;12.75;11.25;;;;;;;;5103380;27;61901;-78
2022/11/29 05:50:36;;;;;;;;;15.00;10.25;;;;;;;;5102099;27;61936;-79
2022/11/29 05:53:23;;;;;;;;;10.25;8.75;;;;;;;;5103470;27;61833;-79
2022/11/29 05:55:52;;;;;;;;;13.25;9.75;;;;;;;;5100477;27;62997;-78
2022/11/29 05:58:31;;;;;;;;;15.25;11.75;;;;;;;;5101554;27;61887;-79
2022/11/29 06:01:02;;;;;;;;;14.75;13.75;;;;;;;;5102758;27;61718;-79
2022/11/29 06:03:28;;;;;;;;;18.50;12.25;;;;;;;;5103026;27;61847;-79
2022/11/29 06:05:56;;;;;;;;;13.25;13.25;;;;;;;;5100171;27;62913;-79
2022/11/29 06:08:29;;;;;;;;;17.75;14.75;;;;;;;;5101260;27;61885;-80
2022/11/29 06:10:59;;;;;;;;;18.75;10.00;;;;;;;;5102457;27;61776;-81
2022/11/29 06:13:36;;;;;;;;;13.00;12.50;;;;;;;;5103048;27;61854;-79
2022/11/29 06:16:20;;;;;;;;;14.25;11.75;;;;;;;;5100686;27;64670;-87
2022/11/29 06:19:04;;;;;;;;;16.00;13.25;;;;;;;;5102871;27;61750;-80
2022/11/29 06:21:37;;;;;;;;;13.25;11.50;;;;;;;;5101427;27;62031;-80
2022/11/29 06:24:02;;;;;;;;;11.75;11.75;;;;;;;;5102797;27;62323;-82
2022/11/29 06:26:43;;;;;;;;;16.25;13.00;;;;;;;;5101709;27;62046;-80
2022/11/29 06:29:24;;;;;;;;;17.75;14.50;;;;;;;;5102749;27;61935;-80
2022/11/29 06:32:07;;;;;;;;;14.00;13.00;;;;;;;;5100965;27;61868;-79
2022/11/29 06:34:47;;;;;;;;;22.25;16.25;;;;;;;;5100593;27;61884;-76
2022/11/29 06:37:16;;;;;;;;;13.75;12.00;;;;;;;;5102032;27;61884;-77
2022/11/29 06:39:41;;;;;;;;;18.75;18.75;;;;;;;;5102511;27;61900;-78
2022/11/29 06:42:06;;;;;;;;;20.50;18.75;;;;;;;;5104101;27;61754;-76
2022/11/29 06:44:38;;;;;;;;;16.25;15.75;;;;;;;;5101228;27;62222;-78
2022/11/29 06:47:12;;;;;;;;;21.50;15.00;;;;;;;;5101152;27;62649;-78
2022/11/29 06:49:39;;;;;;;;;14.50;14.50;;;;;;;;5097580;27;61869;-75
2022/11/29 06:52:13;;;;;;;;;16.25;13.25;;;;;;;;5102184;27;62013;-78
2022/11/29 06:54:38;;;;;;;;;16.50;14.00;;;;;;;;5105038;27;61766;-77
2022/11/29 06:57:12;;;;;;;;;17.50;14.50;;;;;;;;5104458;27;62041;-77
2022/11/29 06:59:49;;;;;;;;;18.75;15.75;;;;;;;;5101312;27;61892;-77
2022/11/29 07:02:26;;;;;;;;;20.25;14.50;;;;;;;;5105038;27;61978;-77
2022/11/29 07:05:10;;;;;;;;;14.50;14.50;;;;;;;;5105909;27;61892;-77
2022/11/29 07:07:36;;;;;;;;;15.50;13.50;;;;;;;;5103754;27;63529;-76
2022/11/29 07:10:03;;;;;;;;;14.75;13.25;;;;;;;;5104322;27;61823;-76
2022/11/29 07:12:28;;;;;;;;;22.00;14.25;;;;;;;;5105545;27;61909;-76
2022/11/29 07:14:54;;;;;;;;;16.00;14.50;;;;;;;;5102183;27;62335;-74
2022/11/29 07:17:28;;;;;;;;;14.75;11.75;;;;;;;;5094041;27;62070;-75
2022/11/29 07:20:20;;;;;;;;;16.25;14.00;;;;;;;;5092139;27;61908;-75
2022/11/29 07:23:01;;;;;;;;;14.75;14.75;;;;;;;;5082505;28;62042;-75
2022/11/29 07:25:33;;;;;;;;;16.25;13.25;;;;;;;;5081861;28;61923;-76
2022/11/29 07:28:14;;;;;;;;;17.25;15.00;;;;;;;;5081783;28;62302;-74
2022/11/29 07:30:54;;;;;;;;;17.50;16.50;;;;;;;;5081033;28;62041;-75
2022/11/29 07:33:39;;;;;;;;;17.00;15.75;;;;;;;;5080230;28;62781;-75
2022/11/29 07:36:17;;;;;;;;;23.75;17.75;;;;;;;;5081192;28;62038;-75
2022/11/29 07:39:00;;;;;;;;;21.50;20.00;;;;;;;;5064062;28;62868;-74
2022/11/29 07:41:35;;;;;;;;;26.00;20.00;;;;;;;;5080845;28;61990;-74
2022/11/29 07:44:00;;;;;;;;;26.75;20.25;;;;;;;;5064069;28;62321;-75
2022/11/29 07:46:27;;;;;;;;;27.75;22.00;;;;;;;;5064269;28;62278;-78
2022/11/29 07:48:52;;;;;;;;;25.50;22.75;;;;;;;;5080414;28;62452;-75
2022/11/29 07:51:17;;;;;;;;;21.25;21.00;;;;;;;;5081831;28;62190;-75
2022/11/29 07:53:43;;;;;;;;;41.00;32.00;;;;;;;;5080467;28;62041;-75
2022/11/29 07:56:08;;;;;;;;;38.25;31.00;;;;;;;;5080903;28;61938;-75
2022/11/29 07:58:34;;;;;;;;;41.75;36.00;;;;;;;;5082180;27;62749;-75
2022/11/29 08:01:00;;;;;;;;;37.50;34.25;;;;;;;;5102561;27;62150;-75
2022/11/29 08:03:26;;;;;;;;;32.00;24.25;;;;;;;;5104569;27;61849;-74
2022/11/29 08:05:51;;;;;;;;;34.50;27.00;;;;;;;;5085006;27;61948;-75
2022/11/29 08:08:16;;;;;;;;;31.25;27.00;;;;;;;;5083655;28;62010;-75
2022/11/29 08:10:42;;;;;;;;;30.25;27.00;;;;;;;;5116295;27;61921;-75
2022/11/29 08:13:07;;;;;;;;;31.25;28.50;;;;;;;;5084252;27;61951;-75
2022/11/29 08:15:32;;;;;;;;;34.00;27.25;;;;;;;;5116371;27;62227;-75
2022/11/29 08:17:57;;;;;;;;;29.75;27.50;;;;;;;;5083122;28;61763;-74
2022/11/29 08:20:23;;;;;;;;;22.25;19.75;;;;;;;;5083668;28;61865;-75
2022/11/29 08:22:55;;;;;;;;;36.75;28.50;;;;;;;;5083713;27;61697;-75
2022/11/29 08:25:21;;;;;;;;;20.25;17.50;;;;;;;;5102953;27;61762;-75
2022/11/29 08:27:47;;;;;;;;;32.50;26.50;;;;;;;;5103165;27;61712;-75
2022/11/29 08:30:12;;;;;;;;;29.50;24.50;;;;;;;;5102450;27;61947;-75
2022/11/29 08:32:37;;;;;;;;;33.25;25.50;;;;;;;;5104107;27;61758;-76
2022/11/29 08:35:03;;;;;;;;;38.25;31.00;;;;;;;;5102939;27;61890;-82
2022/11/29 08:37:28;;;;;;;;;30.00;28.00;;;;;;;;5102141;27;61895;-75
2022/11/29 08:39:54;;;;;;;;;36.50;32.75;;;;;;;;5104120;27;61929;-75
2022/11/29 08:42:19;;;;;;;;;31.00;28.00;;;;;;;;5103798;27;61956;-75
2022/11/29 08:44:45;;;;;;;;;38.25;30.75;;;;;;;;5103433;27;61889;-75
2022/11/29 08:50:00;;;;;;;;;37.50;25.50;;;;;;;;5103408;27;62080;-75
2022/11/29 08:55:10;;;;;;;;;28.25;24.50;;;;;;;;5103290;27;61849;-75
2022/11/29 08:57:35;;;;;;;;;29.50;25.50;;;;;;;;5102860;27;62883;-76
2022/11/29 09:00:01;;;;;;;;;23.25;20.00;;;;;;;;5103375;27;61968;-75
2022/11/29 09:02:26;;;;;;;;;30.00;24.00;;;;;;;;5103837;27;61873;-79
2022/11/29 09:04:51;;;;;;;;;25.25;23.25;;;;;;;;5102450;27;62212;-75
2022/11/29 09:07:16;;;;;;;;;28.50;20.00;;;;;;;;5103273;27;62766;-76
2022/11/29 09:09:42;;;;;;;;;35.00;25.00;;;;;;;;5103845;27;61915;-75
2022/11/29 09:12:07;;;;;;;;;31.50;28.25;;;;;;;;5102014;27;62144;-75
2022/11/29 09:14:33;;;;;;;;;42.25;33.50;;;;;;;;5102084;27;61748;-75
2022/11/29 09:16:59;;;;;;;;;30.25;25.50;;;;;;;;5094735;27;63382;-75
2022/11/29 09:19:24;;;;;;;;;35.50;29.75;;;;;;;;5082769;28;61704;-75
2022/11/29 09:21:49;;;;;;;;;33.50;26.25;;;;;;;;5081528;28;61966;-75
2022/11/29 09:24:14;;;;;;;;;37.00;29.50;;;;;;;;5083111;28;61970;-76
2022/11/29 09:26:41;;;;;;;;;38.75;29.25;;;;;;;;5081944;28;62049;-75
2022/11/29 09:29:06;;;;;;;;;41.00;31.25;;;;;;;;5081179;28;61759;-75
2022/11/29 09:31:32;;;;;;;;;34.75;29.25;;;;;;;;5082998;28;61945;-76
2022/11/29 09:33:58;;;;;;;;;31.75;26.50;;;;;;;;5081695;28;62248;-75
2022/11/29 09:36:23;;;;;;;;;29.75;25.00;;;;;;;;5081950;27;61824;-76
2022/11/29 09:38:48;;;;;;;;;33.50;21.25;;;;;;;;5082502;28;61799;-76
2022/11/29 09:41:26;;;;;;;;;32.25;19.75;;;;;;;;5082408;28;62004;-77
2022/11/29 09:43:59;;;;;;;;;29.50;21.50;;;;;;;;5081657;28;62140;-75
2022/11/29 09:46:43;;;;;;;;;34.25;22.25;;;;;;;;5082216;28;63044;-75
2022/11/29 09:49:14;;;;;;;;;41.00;26.25;;;;;;;;5082090;28;61951;-74
2022/11/29 09:52:02;;;;;;;;;37.00;29.50;;;;;;;;5081352;28;61891;-75
2022/11/29 09:54:50;;;;;;;;;39.25;28.50;;;;;;;;5093744;27;62596;-75
2022/11/29 09:57:18;;;;;;;;;39.75;30.00;;;;;;;;5099532;27;62129;-75
2022/11/29 09:59:48;;;;;;;;;43.25;29.75;;;;;;;;5103028;27;61969;-75
2022/11/29 10:02:19;;;;;;;;;21.50;19.75;;;;;;;;5102620;27;61751;-75
2022/11/29 10:04:48;;;;;;;;;32.75;22.00;;;;;;;;5101593;27;61737;-75
2022/11/29 10:07:26;;;;;;;;;25.75;22.75;;;;;;;;5102097;27;61870;-75
2022/11/29 10:09:51;;;;;;;;;25.75;23.00;;;;;;;;5103058;27;62098;-75
2022/11/29 10:12:29;;;;;;;;;29.00;25.25;;;;;;;;5101772;27;61782;-76
2022/11/29 10:15:01;;;;;;;;;26.25;21.50;;;;;;;;5102284;27;61669;-74
2022/11/29 10:17:26;;;;;;;;;30.75;22.50;;;;;;;;5091215;27;61902;-74
2022/11/29 10:19:56;;;;;;;;;22.75;20.25;;;;;;;;5081853;28;62242;-74
2022/11/29 10:22:26;;;;;;;;;26.50;21.00;;;;;;;;5082334;28;61856;-75
2022/11/29 10:24:56;;;;;;;;;28.00;20.75;;;;;;;;5082313;28;62351;-75
2022/11/29 10:27:22;;;;;;;;;26.25;21.75;;;;;;;;5081135;28;61871;-74
2022/11/29 10:29:49;;;;;;;;;28.00;21.25;;;;;;;;5080539;28;62002;-75
2022/11/29 10:32:15;;;;;;;;;35.50;25.75;;;;;;;;5082168;28;62255;-74
2022/11/29 10:34:42;;;;;;;;;44.75;34.00;;;;;;;;5082250;28;61680;-75
2022/11/29 10:37:09;;;;;;;;;52.75;39.25;;;;;;;;5079889;28;63531;-75
2022/11/29 10:39:42;;;;;;;;;40.75;31.75;;;;;;;;5081531;28;61817;-75
2022/11/29 10:42:47;;;;;;;;;53.00;37.50;;;;;;;;5080606;28;61750;-74
2022/11/29 10:44:59;;;;;;;;;45.50;32.00;;;;;;;;5081919;28;61997;-74
2022/11/29 10:47:24;;;;;;;;;30.50;27.00;;;;;;;;5080014;28;63262;-75
2022/11/29 10:49:49;;;;;;;;;29.50;23.50;;;;;;;;5081374;28;62075;-75
2022/11/29 10:52:21;;;;;;;;;40.00;24.50;;;;;;;;5082240;28;62063;-75
2022/11/29 10:54:48;;;;;;;;;33.00;31.00;;;;;;;;5095560;27;61992;-75
2022/11/29 10:57:18;;;;;;;;;42.00;34.00;;;;;;;;5101177;27;62850;-75
2022/11/29 11:00:03;;;;;;;;;41.25;30.50;;;;;;;;5100889;27;61941;-75
2022/11/29 11:02:29;;;;;;;;;29.75;24.00;;;;;;;;5101976;27;61804;-74
2022/11/29 11:04:55;;;;;;;;;46.00;29.75;;;;;;;;5101652;27;61732;-74
2022/11/29 11:07:31;;;;;;;;;33.50;25.50;;;;;;;;5101307;27;62550;-74
2022/11/29 11:09:58;;;;;;;;;26.50;25.25;;;;;;;;5100074;27;62009;-74
2022/11/29 11:12:28;;;;;;;;;30.00;26.25;;;;;;;;5101846;27;61955;-74
2022/11/29 11:15:26;;;;;;;;;34.25;26.25;;;;;;;;5100445;27;61929;-74
2022/11/29 11:17:58;;;;;;;;;36.25;27.00;;;;;;;;5085411;27;64664;-74
2022/11/29 11:20:26;;;;;;;;;45.00;32.75;;;;;;;;5079618;28;61953;-74
2022/11/29 11:23:17;;;;;;;;;28.00;25.75;;;;;;;;5081830;27;61734;-73
2022/11/29 11:25:44;;;;;;;;;34.50;28.50;;;;;;;;5098675;27;61733;-74
2022/11/29 11:28:16;;;;;;;;;40.25;29.50;;;;;;;;5102923;27;63001;-74
2022/11/29 11:30:48;;;;;;;;;30.75;28.25;;;;;;;;5104846;27;61710;-74
2022/11/29 11:33:23;;;;;;;;;37.00;31.25;;;;;;;;5100972;27;61838;-74
2022/11/29 11:36:14;;;;;;;;;37.50;26.00;;;;;;;;5101020;27;62139;-76
2022/11/29 11:38:52;;;;;;;;;33.25;26.25;;;;;;;;5099008;27;61715;-74
2022/11/29 11:42:35;;;;;;;;;31.50;25.00;;;;;;;;5103416;27;62323;-76
2022/11/29 11:44:31;;;;;;;;;41.00;26.00;;;;;;;;5104490;27;62405;-77
2022/11/29 11:46:58;;;;;;;;;30.00;21.25;;;;;;;;5104456;27;62164;-74
2022/11/29 11:49:35;;;;;;;;;26.00;25.75;;;;;;;;5103534;27;62908;-75
2022/11/29 11:52:02;;;;;;;;;38.00;24.25;;;;;;;;5102499;27;61907;-78
2022/11/29 11:54:28;;;;;;;;;35.75;29.75;;;;;;;;5103433;27;61853;-76
2022/11/29 11:56:54;;;;;;;;;33.25;27.50;;;;;;;;5103588;27;61718;-76
2022/11/29 11:59:22;;;;;;;;;29.50;26.50;;;;;;;;5103745;27;61820;-77
2022/11/29 12:01:48;;;;;;;;;37.25;29.00;;;;;;;;5102691;27;61732;-77
2022/11/29 12:04:19;;;;;;;;;36.75;25.25;;;;;;;;5103566;27;61792;-80
2022/11/29 12:06:57;;;;;;;;;25.00;20.75;;;;;;;;5103379;27;62036;-76
2022/11/29 12:09:44;;;;;;;;;27.50;24.75;;;;;;;;5102933;27;62146;-75
2022/11/29 12:12:15;;;;;;;;;34.25;25.75;;;;;;;;5099750;27;62163;-79
2022/11/29 12:14:46;;;;;;;;;32.75;26.50;;;;;;;;5104121;27;62008;-76
2022/11/29 12:17:20;;;;;;;;;48.25;33.25;;;;;;;;5103411;27;62685;-76
2022/11/29 12:19:50;;;;;;;;;33.00;32.25;;;;;;;;5102886;27;62763;-76
2022/11/29 12:22:21;;;;;;;;;40.00;32.00;;;;;;;;5103927;27;62066;-76
2022/11/29 12:24:54;;;;;;;;;32.25;30.25;;;;;;;;5103872;27;62083;-76
2022/11/29 12:27:20;;;;;;;;;25.75;24.25;;;;;;;;5103298;27;62015;-75
2022/11/29 12:29:45;;;;;;;;;49.50;36.00;;;;;;;;5101579;27;63559;-75
2022/11/29 12:32:20;;;;;;;;;34.75;30.50;;;;;;;;5103627;27;62010;-76
2022/11/29 12:35:07;;;;;;;;;31.50;23.25;;;;;;;;5103771;27;61850;-76
2022/11/29 12:37:33;;;;;;;;;46.00;34.25;;;;;;;;5103752;27;61707;-76
2022/11/29 12:40:17;;;;;;;;;28.00;24.50;;;;;;;;5103771;27;61965;-76
2022/11/29 12:43:00;;;;;;;;;23.75;19.25;;;;;;;;5083292;27;62812;-76
2022/11/29 12:45:25;;;;;;;;;36.00;24.25;;;;;;;;5102517;27;61874;-76
2022/11/29 12:47:50;;;;;;;;;26.25;22.00;;;;;;;;5104239;27;61604;-76
2022/11/29 12:50:22;;;;;;;;;34.75;22.75;;;;;;;;5100816;27;64326;-76
2022/11/29 12:52:51;;;;;;;;;31.00;24.25;;;;;;;;5103979;27;61809;-76
2022/11/29 12:55:21;;;;;;;;;33.00;25.50;;;;;;;;5102364;27;61813;-76
2022/11/29 12:57:49;;;;;;;;;32.50;23.00;;;;;;;;5104010;27;62071;-76
2022/11/29 13:00:17;;;;;;;;;37.25;25.50;;;;;;;;5102050;27;63105;-76
2022/11/29 13:02:53;;;;;;;;;30.75;25.50;;;;;;;;5103543;27;61666;-76
2022/11/29 13:05:24;;;;;;;;;33.25;26.50;;;;;;;;5101938;27;62151;-75
2022/11/29 13:08:02;;;;;;;;;25.75;25.25;;;;;;;;5104103;27;61905;-76
2022/11/29 13:10:33;;;;;;;;;32.00;25.50;;;;;;;;5102984;27;62731;-75
2022/11/29 13:13:07;;;;;;;;;38.75;28.25;;;;;;;;5102088;27;61928;-75
2022/11/29 13:15:41;;;;;;;;;26.25;20.50;;;;;;;;5103210;27;62190;-76
2022/11/29 13:18:31;;;;;;;;;23.25;18.25;;;;;;;;5087498;27;62705;-75
2022/11/29 13:21:00;;;;;;;;;29.75;22.50;;;;;;;;5082268;28;62864;-76
2022/11/29 13:23:25;;;;;;;;;26.00;21.25;;;;;;;;5088104;27;61650;-76
2022/11/29 13:25:53;;;;;;;;;22.00;19.50;;;;;;;;5101499;27;61915;-77
2022/11/29 13:28:32;;;;;;;;;18.00;13.25;;;;;;;;5103343;27;62154;-76
2022/11/29 13:31:03;;;;;;;;;27.50;20.50;;;;;;;;5102633;27;62825;-76
2022/11/29 13:33:40;;;;;;;;;25.50;17.50;;;;;;;;5101347;27;62356;-76
2022/11/29 13:36:11;;;;;;;;;20.50;14.50;;;;;;;;5103037;27;61750;-76
2022/11/29 13:38:39;;;;;;;;;19.00;16.25;;;;;;;;5095718;27;61775;-78
2022/11/29 13:41:21;;;;;;;;;12.00;11.00;;;;;;;;5100472;27;63607;-75
2022/11/29 13:43:46;;;;;;;;;9.50;9.25;;;;;;;;5101517;27;62036;-75
2022/11/29 13:46:14;;;;;;;;;15.25;8.00;;;;;;;;5103423;27;61942;-76
2022/11/29 13:48:42;;;;;;;;;11.50;9.50;;;;;;;;5102148;27;61842;-76
2022/11/29 13:51:34;;;;;;;;;15.00;14.50;;;;;;;;5099808;27;61828;-75
2022/11/29 13:54:04;;;;;;;;;16.75;13.25;;;;;;;;5124701;27;61955;-75
2022/11/29 13:56:35;;;;;;;;;19.25;12.50;;;;;;;;5101874;27;61760;-75
2022/11/29 13:59:04;;;;;;;;;12.00;11.75;;;;;;;;5100260;27;61806;-75
2022/11/29 14:01:41;;;;;;;;;27.50;20.75;;;;;;;;5099219;27;63494;-76
2022/11/29 14:04:21;;;;;;;;;14.00;7.75;;;;;;;;5101176;27;61935;-76
2022/11/29 14:06:47;;;;;;;;;15.50;12.75;;;;;;;;5099588;27;62229;-81
2022/11/29 14:09:12;;;;;;;;;13.50;9.75;;;;;;;;5099298;27;61828;-81
2022/11/29 14:11:47;;;;;;;;;15.00;12.50;;;;;;;;5092232;27;62591;-78
2022/11/29 14:14:16;;;;;;;;;10.75;10.75;;;;;;;;5098465;27;61971;-78
2022/11/29 14:16:41;;;;;;;;;15.00;9.00;;;;;;;;5096927;27;62022;-79
2022/11/29 14:19:06;;;;;;;;;10.50;8.25;;;;;;;;5099290;27;61770;-81
2022/11/29 14:21:51;;;;;;;;;21.75;19.50;;;;;;;;5099516;27;62669;-82
2022/11/29 14:24:34;;;;;;;;;18.00;14.33;;;;;;;;5100984;27;62039;-81
2022/11/29 14:27:06;;;;;;;;;13.00;10.00;;;;;;;;5100417;27;61787;-81
2022/11/29 14:29:47;;;;;;;;;18.75;13.00;;;;;;;;5102349;27;61865;-81
2022/11/29 14:32:30;;;;;;;;;10.50;9.25;;;;;;;;5100972;27;61801;-81
2022/11/29 14:35:01;;;;;;;;;12.00;9.25;;;;;;;;5101690;27;61817;-81
2022/11/29 14:37:50;;;;;;;;;11.00;6.25;;;;;;;;5101911;27;61909;-82
2022/11/29 14:40:25;;;;;;;;;8.50;8.00;;;;;;;;5079630;28;61781;-82
2022/11/29 14:42:51;;;;;;;;;10.25;6.75;;;;;;;;5078026;28;62919;-82
2022/11/29 14:45:25;;;;;;;;;8.00;8.00;;;;;;;;5061755;28;62054;-81
2022/11/29 14:47:50;;;;;;;;;9.75;9.00;;;;;;;;5078627;28;61787;-82
2022/11/29 14:50:28;;;;;;;;;10.25;8.25;;;;;;;;5078621;28;61736;-83
2022/11/29 14:52:53;;;;;;;;;8.00;8.00;;;;;;;;5078328;28;62814;-80
2022/11/29 14:55:18;;;;;;;;;7.50;5.50;;;;;;;;5075625;27;62175;-81
2022/11/29 14:57:47;;;;;;;;;8.00;7.00;;;;;;;;5061158;28;61972;-80